Time;durP1;ratioP1;P1;durP2;ratioP2;P2;SDS_P1;SDS_P2;PMS_P1;PMS_P2;Temp;Humidity;BMP_temperature;BMP_pressure;BME280_temperature;BME280_humidity;BME280_pressure;Samples;Min_cycle;Max_cycle;Signal;HPM_P1;HPM_P2
2022/12/29 00:01:10;;;;;;;7.93;5.10;;;;;;;14.39;51.08;100884.72;5071045;28;20497;-73
2022/12/29 00:03:38;;;;;;;8.63;5.13;;;;;;;14.36;51.04;100880.41;5070985;28;20055;-73
2022/12/29 00:06:08;;;;;;;8.95;5.00;;;;;;;14.32;51.25;100882.44;5069829;28;20052;-73
2022/12/29 00:08:42;;;;;;;10.25;5.10;;;;;;;14.30;51.07;100892.41;5071082;28;20052;-73
2022/12/29 00:11:12;;;;;;;9.77;5.35;;;;;;;14.27;51.16;100902.47;5073922;28;20067;-73
2022/12/29 00:16:42;;;;;;;8.85;5.07;;;;;;;14.20;51.16;100891.28;5015467;28;20045;-73
2022/12/29 00:35:07;;;;;;;8.80;5.20;;;;;;;14.15;51.21;100885.34;5032212;28;20056;-72
2022/12/29 00:36:19;;;;;;;9.50;5.50;;;;;;;13.99;51.32;100871.19;5074010;28;20053;-73
2022/12/29 00:44:23;;;;;;;7.88;5.30;;;;;;;13.88;51.41;100885.28;5072522;28;20049;-73
2022/12/29 00:46:51;;;;;;;7.65;4.75;;;;;;;13.87;51.42;100880.03;5073734;28;20110;-73
2022/12/29 00:49:31;;;;;;;8.23;5.00;;;;;;;13.85;51.37;100880.13;5073704;28;20045;-72
2022/12/29 00:52:01;;;;;;;7.13;4.82;;;;;;;13.83;51.54;100881.22;5073868;28;20074;-73
2022/12/29 00:54:32;;;;;;;7.78;5.05;;;;;;;13.79;51.49;100885.03;5073796;28;20048;-73
2022/12/29 00:57:01;;;;;;;8.20;5.15;;;;;;;13.80;51.57;100886.75;5073791;28;20051;-73
2022/12/29 00:59:30;;;;;;;8.27;5.22;;;;;;;13.75;51.41;100885.22;5073649;28;20040;-72
2022/12/29 01:01:58;;;;;;;7.53;4.95;;;;;;;13.73;51.63;100884.47;5072212;28;20083;-72
2022/12/29 01:04:27;;;;;;;8.27;5.30;;;;;;;13.70;51.60;100886.47;5072160;28;20056;-72
2022/12/29 01:06:55;;;;;;;8.55;5.00;;;;;;;13.68;51.63;100891.06;5073615;28;20496;-72
2022/12/29 01:12:11;;;;;;;8.35;5.20;;;;;;;13.63;51.61;100880.66;5073449;28;20452;-73
2022/12/29 01:14:39;;;;;;;8.13;5.20;;;;;;;13.60;51.81;100888.84;5073398;28;20048;-72
2022/12/29 01:17:08;;;;;;;8.32;4.97;;;;;;;13.59;51.84;100883.59;5072088;28;20476;-74
2022/12/29 01:19:36;;;;;;;7.47;5.00;;;;;;;13.56;51.76;100881.97;5072109;28;20044;-72
2022/12/29 01:22:04;;;;;;;7.82;4.93;;;;;;;13.53;51.85;100879.50;5073174;28;20409;-72
2022/12/29 01:24:32;;;;;;;9.50;5.45;;;;;;;13.52;51.72;100882.28;5073025;28;20051;-72
2022/12/29 01:27:01;;;;;;;7.75;4.60;;;;;;;13.50;51.72;100889.53;5073162;28;20044;-73
2022/12/29 01:29:30;;;;;;;9.15;5.05;;;;;;;13.48;51.82;100884.28;5071784;28;20131;-74
2022/12/29 01:31:58;;;;;;;8.50;4.93;;;;;;;13.45;51.63;100873.75;5072992;28;20052;-73
2022/12/29 01:34:27;;;;;;;8.32;5.18;;;;;;;13.43;51.62;100876.53;5073039;28;20051;-74
2022/12/29 01:36:55;;;;;;;7.68;5.22;;;;;;;13.42;51.79;100868.59;5072935;28;20052;-73
2022/12/29 01:39:23;;;;;;;9.07;5.28;;;;;;;13.40;51.83;100875.84;5072868;28;20113;-73
2022/12/29 01:41:51;;;;;;;9.82;5.07;;;;;;;13.37;51.86;100870.69;5072881;28;20048;-73
2022/12/29 01:44:52;;;;;;;8.95;5.32;;;;;;;13.35;51.83;100877.97;5072678;28;20083;-73
2022/12/29 01:47:34;;;;;;;7.38;5.25;;;;;;;13.34;51.85;100878.91;5072465;28;20051;-73
2022/12/29 01:50:07;;;;;;;9.43;5.32;;;;;;;13.32;51.71;100870.13;5072561;28;20044;-73
2022/12/29 01:52:39;;;;;;;7.85;4.93;;;;;;;13.28;51.88;100863.22;5072494;28;20608;-73
2022/12/29 01:55:09;;;;;;;8.15;5.18;;;;;;;13.25;51.95;100866.09;5072485;28;20040;-73
2022/12/29 01:57:41;;;;;;;8.57;5.18;;;;;;;13.26;51.77;100865.13;5072590;28;20049;-73
2022/12/29 02:00:14;;;;;;;9.32;5.53;;;;;;;13.24;51.86;100861.69;5072631;28;20052;-73
2022/12/29 02:02:46;;;;;;;8.57;5.30;;;;;;;13.21;51.87;100868.06;5072358;28;20040;-73
2022/12/29 02:05:20;;;;;;;7.72;4.85;;;;;;;13.20;51.85;100860.13;5072316;28;20485;-73
2022/12/29 02:07:51;;;;;;;9.48;5.25;;;;;;;13.18;51.93;100855.72;5072315;28;20124;-73
2022/12/29 02:10:21;;;;;;;8.23;5.05;;;;;;;13.16;51.83;100859.44;5072273;28;20040;-73
2022/12/29 02:12:50;;;;;;;8.32;5.15;;;;;;;13.13;51.96;100844.44;5072211;28;20098;-74
2022/12/29 02:15:26;;;;;;;9.55;5.53;;;;;;;13.10;51.99;100844.59;5072178;28;20045;-74
2022/12/29 02:18:12;;;;;;;7.65;4.75;;;;;;;13.10;51.93;100846.41;5072155;28;20102;-74
2022/12/29 02:21:17;;;;;;;8.68;5.40;;;;;;;13.08;51.92;100846.50;5072201;28;20068;-74
2022/12/29 02:24:12;;;;;;;8.35;5.38;;;;;;;13.06;52.13;100843.06;5072368;28;20036;-74
2022/12/29 02:26:51;;;;;;;10.23;5.50;;;;;;;13.03;52.10;100847.78;5072079;28;20051;-74
2022/12/29 02:29:42;;;;;;;7.70;5.35;;;;;;;12.99;52.01;100844.41;5072077;28;20041;-74
2022/12/29 02:32:20;;;;;;;8.43;4.85;;;;;;;13.00;52.13;100843.44;5071494;28;20047;-74
2022/12/29 02:34:58;;;;;;;9.48;5.38;;;;;;;12.97;52.13;100843.63;5072061;28;20444;-74
2022/12/29 02:37:33;;;;;;;8.70;5.22;;;;;;;12.94;51.93;100838.47;5071969;28;20090;-74
2022/12/29 02:40:09;;;;;;;9.60;5.63;;;;;;;12.93;52.00;100842.06;5071911;28;20048;-74
2022/12/29 02:42:44;;;;;;;8.52;5.32;;;;;;;12.92;51.98;100832.31;5071911;28;20432;-74
2022/12/29 02:45:20;;;;;;;8.10;5.18;;;;;;;12.90;51.93;100829.75;5071544;28;20087;-74
2022/12/29 02:47:55;;;;;;;8.50;5.25;;;;;;;12.88;52.08;100830.81;5071841;28;20094;-74
2022/12/29 02:50:27;;;;;;;8.77;5.20;;;;;;;12.87;52.05;100845.16;5071801;28;20101;-73
2022/12/29 02:53:00;;;;;;;9.45;5.63;;;;;;;12.86;52.14;100835.41;5071916;28;20052;-73
2022/12/29 02:55:27;;;;;;;8.55;5.32;;;;;;;12.86;52.08;100832.72;5071797;28;20068;-74
2022/12/29 02:58:17;;;;;;;8.02;5.05;;;;;;;12.82;52.05;100823.13;5070493;28;20067;-73
2022/12/29 03:01:02;;;;;;;8.43;5.55;;;;;;;12.80;51.98;100825.03;5071705;28;20135;-74
2022/12/29 03:03:43;;;;;;;7.60;5.38;;;;;;;12.78;51.95;100822.47;5071501;28;20044;-73
2022/12/29 03:06:30;;;;;;;8.35;5.25;;;;;;;12.76;52.13;100826.19;5071728;28;20490;-73
2022/12/29 03:09:06;;;;;;;8.98;5.50;;;;;;;12.75;52.07;100822.66;5071646;28;20055;-72
2022/12/29 03:12:11;;;;;;;9.60;5.45;;;;;;;12.73;52.04;100807.63;5071511;28;20048;-73
2022/12/29 03:17:43;;;;;;;10.73;5.75;;;;;;;12.69;52.01;100815.00;5071623;28;20044;-73
2022/12/29 03:20:19;;;;;;;8.70;5.50;;;;;;;12.68;52.17;100821.28;5071675;28;20532;-73
2022/12/29 03:22:50;;;;;;;8.82;5.40;;;;;;;12.67;51.97;100821.41;5070114;28;20056;-72
2022/12/29 03:25:24;;;;;;;8.27;5.10;;;;;;;12.65;51.94;100812.59;5071417;28;20050;-73
2022/12/29 03:27:57;;;;;;;9.93;5.50;;;;;;;12.63;52.08;100810.00;5071377;28;20040;-73
2022/12/29 03:30:28;;;;;;;7.65;4.75;;;;;;;12.60;52.19;100808.38;5071530;28;20056;-72
2022/12/29 03:33:00;;;;;;;8.88;5.32;;;;;;;12.59;52.16;100809.31;5071364;28;20071;-73
2022/12/29 03:35:34;;;;;;;8.20;5.57;;;;;;;12.56;52.08;100801.50;5071367;28;20040;-74
2022/12/29 03:38:07;;;;;;;;;;;;;;;12.56;51.97;100790.78;5071797;28;20044;-74
2022/12/29 03:40:36;;;;;;;7.05;4.78;;;;;;;12.53;52.11;100782.91;5071351;28;20023;-74
2022/12/29 03:43:05;;;;;;;8.18;5.10;;;;;;;12.53;52.05;100790.94;5071303;28;20072;-73
2022/12/29 03:45:34;;;;;;;8.68;5.82;;;;;;;12.53;52.11;100800.78;5073414;28;20528;-74
2022/12/29 03:48:02;;;;;;;8.25;5.47;;;;;;;12.50;52.11;100796.50;5075110;28;20068;-74
2022/12/29 03:50:32;;;;;;;9.68;5.90;;;;;;;12.49;52.08;100794.78;5074969;28;20135;-72
2022/12/29 03:53:00;;;;;;;9.00;5.50;;;;;;;12.47;52.26;100802.03;5074894;28;20052;-74
2022/12/29 03:55:28;;;;;;;8.73;5.45;;;;;;;12.46;52.20;100808.34;5074851;28;20075;-74
2022/12/29 03:57:56;;;;;;;8.70;5.47;;;;;;;12.45;52.30;100792.34;5074899;28;20090;-74
2022/12/29 04:00:24;;;;;;;8.10;5.13;;;;;;;12.43;52.31;100800.47;5074799;28;20457;-73
2022/12/29 04:02:52;;;;;;;8.70;5.35;;;;;;;12.40;52.09;100800.66;5074830;28;20124;-73
2022/12/29 04:05:21;;;;;;;11.40;5.57;;;;;;;12.39;52.30;100798.94;5074540;28;20071;-73
2022/12/29 04:07:51;;;;;;;10.25;6.07;;;;;;;12.40;52.24;100808.69;5074719;28;20094;-73
2022/12/29 04:10:19;;;;;;;9.45;6.00;;;;;;;12.39;52.28;100809.66;5074724;28;20069;-73
2022/12/29 04:12:47;;;;;;;10.15;5.47;;;;;;;12.37;52.37;100806.22;5074661;28;20051;-73
2022/12/29 04:15:16;;;;;;;9.32;5.60;;;;;;;12.36;52.21;100801.81;5073663;28;20048;-73
2022/12/29 04:17:45;;;;;;;9.68;5.45;;;;;;;12.35;52.17;100800.06;5074449;28;20123;-73
2022/12/29 04:23:01;;;;;;;9.07;5.70;;;;;;;12.32;52.17;100809.13;5074399;28;20098;-73
2022/12/29 04:25:31;;;;;;;9.50;5.82;;;;;;;12.32;52.26;100808.28;5074212;28;20098;-73
2022/12/29 04:27:59;;;;;;;10.40;6.22;;;;;;;12.32;51.84;100802.94;5074259;28;20049;-73
2022/12/29 04:30:27;;;;;;;10.63;5.78;;;;;;;12.34;51.92;100809.03;5074239;28;20044;-73
2022/12/29 04:32:55;;;;;;;11.70;5.75;;;;;;;12.40;53.21;100808.69;5073073;28;20053;-73
2022/12/29 04:35:23;;;;;;;9.48;5.43;;;;;;;12.49;53.76;100805.47;5074095;28;20090;-74
2022/12/29 04:37:51;;;;;;;8.85;5.43;;;;;;;12.60;53.61;100803.00;5074173;28;20123;-72
2022/12/29 04:40:21;;;;;;;8.23;5.50;;;;;;;12.72;53.61;100800.56;5074134;28;20055;-72
2022/12/29 04:42:50;;;;;;;9.15;5.78;;;;;;;12.83;53.27;100806.09;5073108;28;20071;-73
2022/12/29 04:45:18;;;;;;;10.55;5.45;;;;;;;12.92;53.22;100808.22;5073764;28;20080;-73
2022/12/29 04:47:46;;;;;;;9.02;5.60;;;;;;;13.03;53.20;100788.84;5073944;28;20114;-73
2022/12/29 04:50:14;;;;;;;10.05;5.50;;;;;;;13.14;53.20;100797.94;5072619;28;20040;-73
2022/12/29 04:52:45;;;;;;;8.48;5.57;;;;;;;13.27;52.99;100803.41;5072559;28;20094;-73
2022/12/29 04:55:13;;;;;;;8.18;5.22;;;;;;;13.36;52.91;100793.94;5072111;28;20135;-73
2022/12/29 04:57:43;;;;;;;8.57;5.63;;;;;;;13.48;52.64;100794.97;5073814;28;20048;-73
2022/12/29 05:00:12;;;;;;;9.18;5.60;;;;;;;13.57;52.43;100805.97;5073834;28;20123;-73
2022/12/29 05:02:40;;;;;;;8.95;5.97;;;;;;;13.65;52.48;100803.66;5072397;28;20052;-73
2022/12/29 05:05:09;;;;;;;8.80;5.80;;;;;;;13.75;52.48;100807.47;5073576;28;20054;-72
2022/12/29 05:07:37;;;;;;;9.10;5.70;;;;;;;13.84;52.40;100805.16;5073586;28;20051;-73
2022/12/29 05:10:07;;;;;;;8.90;5.82;;;;;;;13.92;52.27;100808.22;5073512;28;20048;-73
2022/12/29 05:12:37;;;;;;;9.10;5.82;;;;;;;14.03;52.15;100813.72;5073400;28;20060;-72
2022/12/29 05:15:09;;;;;;;8.10;5.68;;;;;;;14.13;52.00;100812.16;5073490;28;20119;-72
2022/12/29 05:17:37;;;;;;;8.93;5.82;;;;;;;14.22;51.83;100791.91;5071566;28;20512;-73
2022/12/29 05:20:07;;;;;;;8.98;5.70;;;;;;;14.31;51.81;100800.22;5073381;28;20049;-73
2022/12/29 05:22:35;;;;;;;10.15;5.50;;;;;;;14.38;51.71;100791.72;5073265;28;20504;-73
2022/12/29 05:25:04;;;;;;;9.38;5.80;;;;;;;14.47;51.57;100793.81;5072970;28;20040;-72
2022/12/29 05:27:33;;;;;;;9.68;5.80;;;;;;;14.54;51.59;100795.13;5073200;28;20043;-72
2022/12/29 05:30:02;;;;;;;11.65;5.85;;;;;;;14.59;51.34;100790.31;5073081;28;20044;-72
2022/12/29 05:32:32;;;;;;;8.88;5.88;;;;;;;14.64;51.48;100793.53;5072950;28;20046;-73
2022/12/29 05:35:00;;;;;;;10.40;6.15;;;;;;;14.65;51.63;100799.78;5072930;28;20083;-73
2022/12/29 05:37:28;;;;;;;8.70;5.90;;;;;;;14.68;51.42;100799.56;5072799;28;20080;-72
2022/12/29 05:39:56;;;;;;;8.55;5.57;;;;;;;14.66;51.47;100799.66;5072812;28;20131;-73
2022/12/29 05:42:24;;;;;;;8.43;6.03;;;;;;;14.68;51.31;100794.22;5072798;28;20375;-73
2022/12/29 05:44:53;;;;;;;9.23;5.68;;;;;;;14.72;51.43;100784.97;5072586;28;20107;-73
2022/12/29 05:47:21;;;;;;;9.65;5.88;;;;;;;14.75;51.34;100788.28;5072740;28;20040;-73
2022/12/29 05:49:51;;;;;;;8.35;5.57;;;;;;;14.80;51.24;100788.84;5072765;28;20614;-73
2022/12/29 05:52:19;;;;;;;8.40;5.63;;;;;;;14.85;51.23;100781.31;5072602;28;20123;-73
2022/12/29 05:54:47;;;;;;;9.68;5.63;;;;;;;14.93;51.09;100783.47;5072658;28;20123;-73
2022/12/29 05:57:15;;;;;;;10.32;5.78;;;;;;;14.97;51.00;100778.75;5072570;28;20110;-73
2022/12/29 05:59:44;;;;;;;9.50;6.32;;;;;;;15.03;50.87;100781.00;5072591;28;20044;-73
2022/12/29 06:02:12;;;;;;;8.77;5.90;;;;;;;15.07;50.98;100779.84;5072430;28;20083;-73
2022/12/29 06:04:41;;;;;;;8.82;5.55;;;;;;;15.10;50.90;100779.59;5072265;28;20060;-73
2022/12/29 06:07:10;;;;;;;8.27;5.63;;;;;;;15.15;50.71;100782.81;5071818;28;20064;-73
2022/12/29 06:09:38;;;;;;;8.00;5.45;;;;;;;15.16;50.77;100784.56;5072218;28;20068;-73
2022/12/29 06:12:09;;;;;;;10.13;5.95;;;;;;;15.15;50.78;100781.00;5072336;28;20437;-73
2022/12/29 06:14:38;;;;;;;11.13;6.55;;;;;;;15.16;50.76;100784.56;5072229;28;20123;-74
2022/12/29 06:17:06;;;;;;;9.77;5.97;;;;;;;15.11;50.68;100776.81;5072158;28;20056;-75
2022/12/29 06:19:34;;;;;;;9.15;5.60;;;;;;;15.08;50.77;100781.53;5072317;28;20071;-75
2022/12/29 06:22:02;;;;;;;9.18;6.03;;;;;;;15.02;50.90;100774.75;5072137;28;20939;-74
2022/12/29 06:24:32;;;;;;;11.13;5.88;;;;;;;14.97;51.09;100771.56;5072221;28;20068;-75
2022/12/29 06:27:00;;;;;;;10.82;6.13;;;;;;;14.96;50.99;100782.38;5071972;28;20088;-74
2022/12/29 06:29:28;;;;;;;9.70;6.05;;;;;;;14.88;51.02;100781.13;5072052;28;20048;-72
2022/12/29 06:31:57;;;;;;;9.57;6.45;;;;;;;14.84;50.96;100787.66;5071797;28;20502;-74
2022/12/29 06:34:26;;;;;;;9.40;6.20;;;;;;;14.78;51.00;100781.88;5072048;28;20110;-74
2022/12/29 06:36:54;;;;;;;10.05;6.32;;;;;;;14.73;51.14;100787.53;5070578;28;20086;-73
2022/12/29 06:39:22;;;;;;;9.93;6.50;;;;;;;14.70;51.16;100789.59;5071863;28;20063;-73
2022/12/29 06:41:54;;;;;;;10.68;6.35;;;;;;;14.64;51.34;100782.81;5071887;28;20152;-73
2022/12/29 06:44:22;;;;;;;9.75;6.28;;;;;;;14.58;51.24;100780.56;5070428;28;20045;-72
2022/12/29 06:46:51;;;;;;;9.75;6.10;;;;;;;14.51;51.36;100781.94;5071812;28;20110;-72
2022/12/29 06:49:19;;;;;;;10.95;6.75;;;;;;;14.49;51.29;100789.22;5071699;28;20450;-72
2022/12/29 06:51:47;;;;;;;10.57;6.72;;;;;;;14.44;51.31;100794.00;5071864;28;20045;-73
2022/12/29 06:54:15;;;;;;;9.63;6.22;;;;;;;14.40;51.20;100800.56;5071688;28;20506;-72
2022/12/29 06:56:44;;;;;;;9.35;6.43;;;;;;;14.35;51.03;100797.31;5071682;28;20090;-73
2022/12/29 06:59:14;;;;;;;11.25;7.32;;;;;;;14.28;51.19;100786.13;5070466;28;20049;-74
2022/12/29 07:01:42;;;;;;;10.07;7.00;;;;;;;14.23;51.06;100799.84;5071735;28;20075;-73
2022/12/29 07:04:11;;;;;;;10.93;6.93;;;;;;;14.19;51.08;100798.34;5071671;28;20049;-73
2022/12/29 07:06:40;;;;;;;10.07;6.60;;;;;;;14.15;50.86;100794.13;5070243;28;20440;-73
2022/12/29 07:09:09;;;;;;;11.35;7.38;;;;;;;14.09;50.86;100797.25;5071672;28;20090;-73
2022/12/29 07:11:37;;;;;;;10.75;7.40;;;;;;;14.06;51.01;100813.50;5071380;28;20409;-73
2022/12/29 07:14:05;;;;;;;9.88;6.55;;;;;;;14.01;50.64;100804.94;5071691;28;20413;-73
2022/12/29 07:16:35;;;;;;;9.93;6.88;;;;;;;13.96;50.67;100807.91;5071533;28;20051;-73
2022/12/29 07:19:03;;;;;;;10.77;6.97;;;;;;;13.93;50.62;100807.25;5073135;28;20040;-73
2022/12/29 07:21:31;;;;;;;10.95;6.60;;;;;;;13.88;50.53;100809.34;5075580;28;20049;-72
2022/12/29 07:23:59;;;;;;;10.60;7.28;;;;;;;13.84;50.77;100814.06;5075443;28;20049;-73
2022/12/29 07:26:28;;;;;;;9.85;6.32;;;;;;;13.81;50.73;100813.41;5075351;28;20048;-72
2022/12/29 07:29:03;;;;;;;10.25;6.63;;;;;;;13.77;51.00;100806.50;5075370;28;20110;-73
2022/12/29 07:31:32;;;;;;;11.20;6.80;;;;;;;13.72;51.01;100813.03;5074115;28;20071;-73
2022/12/29 07:34:01;;;;;;;10.38;7.00;;;;;;;13.68;51.08;100808.81;5075297;28;20416;-73
2022/12/29 07:36:29;;;;;;;10.52;6.82;;;;;;;13.65;51.11;100817.06;5073955;28;20486;-73
2022/12/29 07:39:01;;;;;;;10.25;7.00;;;;;;;13.62;51.01;100814.59;5075313;28;20447;-73
2022/12/29 07:41:30;;;;;;;10.98;6.80;;;;;;;13.57;51.11;100811.34;5073789;28;20044;-72
2022/12/29 07:43:58;;;;;;;10.45;6.70;;;;;;;13.55;50.91;100812.41;5073703;28;20045;-72
2022/12/29 07:46:26;;;;;;;10.93;7.40;;;;;;;13.53;50.73;100812.50;5074703;28;20060;-72
2022/12/29 07:49:16;;;;;;;10.63;6.88;;;;;;;13.54;51.37;100819.56;5074885;28;20052;-73
2022/12/29 07:51:44;;;;;;;11.02;6.68;;;;;;;13.58;51.91;100828.28;5075016;28;20044;-73
2022/12/29 07:54:13;;;;;;;11.20;7.15;;;;;;;13.63;51.97;100821.69;5074944;28;20055;-73
2022/12/29 07:56:41;;;;;;;10.75;7.22;;;;;;;13.73;51.72;100821.94;5074778;28;20056;-74
2022/12/29 07:59:09;;;;;;;9.48;6.47;;;;;;;13.84;51.71;100829.28;5074798;28;20102;-73
2022/12/29 08:01:38;;;;;;;10.32;6.95;;;;;;;13.93;51.52;100826.03;5074578;28;20041;-74
2022/12/29 08:04:06;;;;;;;10.18;6.25;;;;;;;14.01;51.30;100826.38;5074695;28;20132;-74
2022/12/29 08:06:37;;;;;;;10.68;7.28;;;;;;;14.08;51.36;100822.31;5074538;28;20049;-74
2022/12/29 08:09:05;;;;;;;10.80;7.05;;;;;;;14.11;51.23;100819.47;5074799;28;20102;-73
2022/12/29 08:11:45;;;;;;;9.60;6.57;;;;;;;14.14;51.30;100827.28;5074534;28;20048;-74
2022/12/29 08:14:13;;;;;;;10.15;6.68;;;;;;;14.15;51.30;100817.41;5073073;28;20052;-74
2022/12/29 08:16:42;;;;;;;9.68;6.38;;;;;;;14.14;51.38;100815.69;5074420;28;20041;-74
2022/12/29 08:19:11;;;;;;;10.52;7.10;;;;;;;14.12;51.30;100813.13;5072933;28;20048;-73
2022/12/29 08:21:41;;;;;;;10.15;6.50;;;;;;;14.12;51.35;100812.25;5072231;28;20563;-77
2022/12/29 08:24:10;;;;;;;10.30;6.63;;;;;;;14.09;51.56;100816.03;5071978;28;20048;-73
2022/12/29 08:26:38;;;;;;;12.02;6.85;;;;;;;14.05;51.56;100811.78;5093841;28;20077;-74
2022/12/29 08:29:06;;;;;;;11.48;7.03;;;;;;;14.05;51.91;100798.38;5080013;28;20395;-73
2022/12/29 08:31:34;;;;;;;13.27;7.68;;;;;;;14.02;51.64;100795.91;5063126;28;20105;-73
2022/12/29 08:34:03;;;;;;;10.45;7.47;;;;;;;13.99;51.39;100806.81;5079700;28;20065;-72
2022/12/29 08:36:32;;;;;;;11.30;7.60;;;;;;;13.95;51.18;100800.81;5087670;28;20545;-71
2022/12/29 08:39:01;;;;;;;12.23;7.35;;;;;;;13.92;51.12;100806.38;5075077;28;20091;-72
2022/12/29 08:41:30;;;;;;;11.77;6.95;;;;;;;13.89;51.13;100800.34;5072510;28;20044;-72
2022/12/29 08:43:58;;;;;;;12.85;6.82;;;;;;;13.85;51.06;100791.66;5077727;28;20451;-72
2022/12/29 08:46:26;;;;;;;12.85;7.63;;;;;;;13.83;50.90;100800.75;5053646;28;20085;-72
2022/12/29 08:48:54;;;;;;;12.45;7.50;;;;;;;13.79;50.88;100793.88;5053778;28;20053;-71
2022/12/29 08:51:22;;;;;;;12.25;7.15;;;;;;;13.75;50.81;100796.75;5053577;28;20124;-72
2022/12/29 08:53:52;;;;;;;11.38;7.72;;;;;;;13.72;50.78;100793.41;5053714;28;20131;-72
2022/12/29 08:56:23;;;;;;;11.82;7.38;;;;;;;13.69;50.78;100793.59;5053796;28;20049;-72
2022/12/29 08:58:52;;;;;;;11.55;7.43;;;;;;;13.66;50.58;100789.31;5053956;28;20053;-71
2022/12/29 09:01:21;;;;;;;11.95;8.10;;;;;;;13.63;50.51;100792.19;5068392;28;20461;-72
2022/12/29 09:03:49;;;;;;;12.20;7.93;;;;;;;13.62;50.37;100784.25;5069302;28;20064;-72
2022/12/29 09:06:37;;;;;;;13.98;8.52;;;;;;;13.57;50.48;100795.25;5070193;28;20070;-72
2022/12/29 09:09:07;;;;;;;11.75;7.68;;;;;;;13.51;50.50;100787.63;5069147;28;20055;-72
2022/12/29 09:11:37;;;;;;;12.82;7.68;;;;;;;13.50;50.42;100779.66;5072119;28;20056;-72
2022/12/29 09:14:07;;;;;;;12.13;7.93;;;;;;;13.48;50.30;100790.47;5071243;28;20045;-72
2022/12/29 09:16:36;;;;;;;12.52;8.40;;;;;;;13.45;50.32;100775.47;5057011;28;20044;-70
2022/12/29 09:19:05;;;;;;;12.60;8.13;;;;;;;13.43;50.34;100776.53;5071377;28;20056;-70
2022/12/29 09:21:34;;;;;;;11.10;7.90;;;;;;;13.39;50.19;100769.63;5072564;28;20119;-72
2022/12/29 09:24:02;;;;;;;13.10;8.18;;;;;;;13.38;50.20;100767.91;5068189;28;20041;-71
2022/12/29 09:26:30;;;;;;;12.02;7.82;;;;;;;13.36;50.23;100767.16;5068336;28;20051;-70
2022/12/29 09:29:00;;;;;;;12.10;8.00;;;;;;;13.34;50.03;100761.88;5072672;28;20098;-71
2022/12/29 09:31:28;;;;;;;11.90;7.85;;;;;;;13.30;50.04;100760.34;5072861;28;20527;-72
2022/12/29 09:33:56;;;;;;;12.30;8.88;;;;;;;13.31;50.19;100750.50;5071615;28;20521;-70
2022/12/29 09:36:24;;;;;;;14.38;8.00;;;;;;;13.35;52.10;100747.53;5072972;28;20045;-69
2022/12/29 09:38:54;;;;;;;20.67;7.97;;;;;;;13.43;55.58;100755.09;5072875;28;20049;-73
2022/12/29 09:41:27;;;;;;;20.02;7.88;;;;;;;13.50;57.52;100745.66;5068485;28;20040;-72
2022/12/29 09:44:07;;;;;;;19.80;8.38;;;;;;;13.57;57.88;100746.16;5073083;28;20075;-71
2022/12/29 09:46:40;;;;;;;17.67;8.18;;;;;;;13.56;56.70;100747.13;5078765;28;20408;-73
2022/12/29 09:49:17;;;;;;;21.63;8.90;;;;;;;13.50;54.24;100740.31;5083961;28;20070;-72
2022/12/29 09:51:50;;;;;;;18.50;8.73;;;;;;;13.48;54.51;100744.91;5072838;28;20124;-71
2022/12/29 09:54:41;;;;;;;15.57;8.10;;;;;;;13.45;54.36;100747.81;5071283;28;20140;-71
2022/12/29 09:57:18;;;;;;;14.80;7.93;;;;;;;13.42;54.28;100748.00;5071384;28;20050;-72
2022/12/29 09:59:50;;;;;;;17.80;8.65;;;;;;;13.36;53.86;100741.22;5068889;28;20044;-73
2022/12/29 10:02:32;;;;;;;20.80;8.82;;;;;;;13.34;53.43;100734.25;5068800;28;20288;-72
2022/12/29 10:05:00;;;;;;;19.67;8.13;;;;;;;13.30;53.29;100733.56;5068923;28;20382;-72
2022/12/29 10:07:38;;;;;;;14.55;8.55;;;;;;;13.27;52.96;100723.03;5069138;28;20044;-72
2022/12/29 10:10:36;;;;;;;14.80;9.40;;;;;;;13.22;52.70;100714.47;5070343;28;20106;-72
2022/12/29 10:13:22;;;;;;;13.88;8.40;;;;;;;13.22;52.76;100708.22;5070589;28;20453;-73
2022/12/29 10:16:03;;;;;;;14.00;8.23;;;;;;;13.18;52.56;100713.75;5070831;28;20041;-74
2022/12/29 10:18:52;;;;;;;11.95;8.05;;;;;;;13.16;52.67;100712.97;5070809;28;20044;-72
2022/12/29 10:21:32;;;;;;;19.75;9.00;;;;;;;13.13;52.44;100718.53;5072049;28;20101;-73
2022/12/29 10:24:03;;;;;;;16.17;9.13;;;;;;;13.11;52.49;100723.13;5070601;28;20055;-73
2022/12/29 10:26:36;;;;;;;16.88;8.77;;;;;;;13.10;52.32;100724.06;5070691;28;20075;-72
2022/12/29 10:29:06;;;;;;;15.40;8.65;;;;;;;13.07;52.40;100710.88;5070628;28;20054;-72
2022/12/29 10:31:40;;;;;;;14.27;7.80;;;;;;;13.05;52.24;100718.16;5071982;28;20048;-73
2022/12/29 10:34:19;;;;;;;14.95;9.18;;;;;;;13.04;52.26;100720.94;5071918;28;20474;-73
2022/12/29 10:36:50;;;;;;;14.20;9.02;;;;;;;13.02;52.15;100717.47;5070600;28;20123;-73
2022/12/29 10:39:24;;;;;;;14.20;8.65;;;;;;;13.00;51.93;100703.34;5071983;28;20048;-73
2022/12/29 10:42:00;;;;;;;13.90;8.55;;;;;;;12.99;52.01;100701.63;5071854;28;20044;-73
2022/12/29 10:44:31;;;;;;;14.50;8.80;;;;;;;12.97;51.79;100699.03;5071662;28;20082;-73
2022/12/29 10:47:05;;;;;;;16.30;8.65;;;;;;;12.97;51.45;100695.50;5071637;28;20504;-73
2022/12/29 10:49:40;;;;;;;14.93;8.75;;;;;;;12.97;51.59;100692.81;5071585;28;20526;-74
2022/12/29 10:52:10;;;;;;;15.90;9.48;;;;;;;13.00;51.41;100697.97;5070243;28;20501;-73
2022/12/29 10:54:45;;;;;;;14.40;8.82;;;;;;;13.00;51.35;100689.94;5071269;28;20060;-73
2022/12/29 10:57:24;;;;;;;15.10;9.00;;;;;;;13.03;51.42;100693.31;5071535;28;20048;-73
2022/12/29 10:59:52;;;;;;;13.63;8.38;;;;;;;13.03;51.70;100679.91;5071887;28;20055;-73
2022/12/29 11:02:48;;;;;;;12.98;8.52;;;;;;;13.06;51.52;100684.22;5071514;28;20494;-73
2022/12/29 11:05:23;;;;;;;14.07;8.63;;;;;;;13.06;51.47;100685.06;5071700;28;20044;-73
2022/12/29 11:07:56;;;;;;;13.05;8.63;;;;;;;13.08;51.91;100691.19;5070146;28;20048;-73
2022/12/29 11:10:31;;;;;;;14.18;8.57;;;;;;;13.09;52.05;100679.50;5071605;28;20049;-73
2022/12/29 11:13:01;;;;;;;13.50;8.23;;;;;;;13.11;52.19;100690.97;5071563;28;20045;-72
2022/12/29 11:15:40;;;;;;;13.25;8.32;;;;;;;13.11;52.09;100692.78;5070155;28;20473;-73
2022/12/29 11:18:19;;;;;;;13.80;8.52;;;;;;;13.14;52.27;100696.16;5071505;28;20156;-73
2022/12/29 11:20:48;;;;;;;14.00;8.27;;;;;;;13.17;52.35;100681.69;5071410;28;20045;-73
2022/12/29 11:23:27;;;;;;;12.00;7.57;;;;;;;13.19;52.20;100682.50;5071385;28;20485;-73
2022/12/29 11:26:17;;;;;;;12.93;8.20;;;;;;;13.18;52.10;100676.25;5071240;28;20044;-74
2022/12/29 11:28:47;;;;;;;14.80;8.45;;;;;;;13.18;52.12;100676.25;5070970;28;20162;-73
2022/12/29 11:31:20;;;;;;;12.82;8.30;;;;;;;13.24;52.10;100674.19;5071220;28;20452;-73
2022/12/29 11:33:49;;;;;;;13.85;8.30;;;;;;;13.26;51.98;100662.41;5071399;28;20045;-73
2022/12/29 11:36:21;;;;;;;13.60;8.35;;;;;;;13.28;51.88;100654.25;5071414;28;20135;-73
2022/12/29 11:38:51;;;;;;;14.25;9.10;;;;;;;13.30;51.99;100652.31;5071335;28;20068;-73
2022/12/29 11:41:23;;;;;;;13.10;8.50;;;;;;;13.31;51.83;100654.03;5071221;28;20120;-73
2022/12/29 11:43:54;;;;;;;13.95;8.95;;;;;;;13.34;52.01;100643.16;5070201;28;20055;-73
2022/12/29 11:46:26;;;;;;;11.95;8.18;;;;;;;13.35;51.95;100648.41;5071041;28;20055;-74
2022/12/29 11:48:59;;;;;;;13.55;8.73;;;;;;;13.37;52.00;100648.28;5069838;28;20094;-73
2022/12/29 11:51:30;;;;;;;13.75;8.50;;;;;;;13.40;52.09;100648.09;5071234;28;20048;-74
2022/12/29 11:54:00;;;;;;;12.57;8.02;;;;;;;13.41;52.04;100647.13;5071143;28;20041;-74
2022/12/29 11:56:38;;;;;;;11.98;8.15;;;;;;;13.45;51.93;100654.00;5069780;28;20489;-73
2022/12/29 11:59:38;;;;;;;13.82;9.15;;;;;;;13.47;52.12;100646.72;5070982;28;20045;-74
2022/12/29 12:02:31;;;;;;;12.95;8.32;;;;;;;13.50;52.22;100654.56;5069393;28;20071;-73
2022/12/29 12:05:35;;;;;;;14.10;8.88;;;;;;;13.52;52.30;100657.16;5070989;28;20486;-73
2022/12/29 12:08:10;;;;;;;11.77;8.15;;;;;;;13.52;52.28;100658.03;5071915;28;20053;-73
2022/12/29 12:10:49;;;;;;;13.05;8.88;;;;;;;13.56;52.29;100659.53;5074277;28;20080;-73
2022/12/29 12:13:26;;;;;;;12.65;8.80;;;;;;;13.56;51.93;100646.13;5073350;28;20040;-73
2022/12/29 12:16:00;;;;;;;12.98;8.45;;;;;;;13.60;52.28;100647.63;5074599;28;20055;-74